Time;durP1;ratioP1;P1;durP2;ratioP2;P2;SDS_P1;SDS_P2;PMS_P1;PMS_P2;Temp;Humidity;BMP_temperature;BMP_pressure;BME280_temperature;BME280_humidity;BME280_pressure;Samples;Min_cycle;Max_cycle;Signal;HPM_P1;HPM_P2
2023/10/26 00:01:44;;;;;;;0.40;0.40;;;;;;;11.47;73.21;96740.06;5021270;28;20045;-91
2023/10/26 00:04:11;;;;;;;0.50;0.50;;;;;;;11.48;73.76;96741.81;5035349;28;20724;-92
2023/10/26 00:06:36;;;;;;;0.47;0.47;;;;;;;11.42;73.86;96734.75;5022086;28;20051;-93
2023/10/26 00:09:03;;;;;;;0.50;0.50;;;;;;;11.39;74.32;96737.44;5026619;28;20056;-91
2023/10/26 00:11:33;;;;;;;0.50;0.50;;;;;;;11.37;74.39;96738.34;5035442;28;20033;-92
2023/10/26 00:14:01;;;;;;;0.40;0.40;;;;;;;11.36;74.62;96750.81;5056280;28;20045;-89
2023/10/26 00:16:27;;;;;;;0.50;0.50;;;;;;;11.34;74.32;96739.25;5035950;28;20041;-92
2023/10/26 00:18:52;;;;;;;0.43;0.43;;;;;;;11.32;74.87;96743.72;5025391;28;20041;-92
2023/10/26 00:21:27;;;;;;;0.50;0.50;;;;;;;11.38;74.35;96749.00;5035156;28;20483;-93
2023/10/26 00:23:55;;;;;;;0.40;0.40;;;;;;;11.39;74.26;96748.09;5038191;28;20080;-93
2023/10/26 00:26:23;;;;;;;0.47;0.47;;;;;;;11.34;74.92;96752.59;5038023;28;20036;-92
2023/10/26 00:28:50;;;;;;;0.43;0.43;;;;;;;11.39;74.38;96750.78;5005398;28;20053;-93
2023/10/26 00:31:20;;;;;;;0.50;0.50;;;;;;;11.38;74.27;96749.00;5033953;28;20036;-92
2023/10/26 00:33:48;;;;;;;0.40;0.40;;;;;;;11.34;74.86;96755.25;5020388;28;20051;-90
2023/10/26 00:36:14;;;;;;;0.40;0.40;;;;;;;11.34;75.05;96757.94;5048809;28;20517;-87
2023/10/26 00:38:41;;;;;;;0.40;0.40;;;;;;;11.40;74.63;96755.25;5033858;28;20428;-93
2023/10/26 00:41:08;;;;;;;0.50;0.50;;;;;;;11.42;74.63;96752.56;5015002;28;20557;-93
2023/10/26 00:43:34;;;;;;;;;;;;;;;11.31;74.87;96749.97;5038715;28;20068;-88
2023/10/26 00:46:03;;;;;;;0.45;0.45;;;;;;;11.35;74.83;96753.47;5017437;28;20402;-91
2023/10/26 00:48:36;;;;;;;0.50;0.50;;;;;;;11.34;74.93;96744.56;5054007;28;20029;-90
2023/10/26 00:51:03;;;;;;;0.43;0.43;;;;;;;11.34;74.92;96749.91;5038015;28;20041;-92
2023/10/26 00:53:31;;;;;;;0.50;0.50;;;;;;;11.24;74.99;96745.53;5033650;28;20040;-90
2023/10/26 00:56:00;;;;;;;0.45;0.45;;;;;;;11.19;75.53;96748.22;5054267;28;20473;-88
2023/10/26 00:58:30;;;;;;;0.40;0.40;;;;;;;11.17;75.44;96744.69;5062579;28;20060;-90
2023/10/26 01:01:00;;;;;;;0.40;0.40;;;;;;;11.18;75.33;96742.91;5059328;28;20037;-92
2023/10/26 01:03:30;;;;;;;0.50;0.50;;;;;;;11.20;75.24;96743.78;5038788;28;20462;-90
2023/10/26 01:05:56;;;;;;;0.45;0.45;;;;;;;11.17;75.55;96739.34;5029492;28;20128;-91
2023/10/26 01:08:23;;;;;;;0.40;0.40;;;;;;;11.23;75.07;96736.63;5054234;28;20032;-90
2023/10/26 01:10:51;;;;;;;0.40;0.40;;;;;;;11.05;76.18;96729.59;5052448;28;20506;-91
2023/10/26 01:13:21;;;;;;;0.50;0.50;;;;;;;11.11;75.96;96735.81;5034813;28;20365;-91
2023/10/26 01:15:51;;;;;;;0.40;0.40;;;;;;;11.14;75.39;96730.47;5017904;28;20045;-90
2023/10/26 01:18:20;;;;;;;0.50;0.50;;;;;;;11.07;75.71;96736.72;5027516;28;20142;-90
2023/10/26 01:20:46;;;;;;;0.50;0.50;;;;;;;11.10;76.34;96742.03;5033861;28;20456;-90
2023/10/26 01:23:14;;;;;;;0.50;0.50;;;;;;;11.17;75.65;96738.47;5010230;28;20124;-86
2023/10/26 01:25:42;;;;;;;0.50;0.50;;;;;;;11.10;75.83;96742.94;5043774;28;20029;-89
2023/10/26 01:28:10;;;;;;;0.40;0.40;;;;;;;11.16;75.57;96747.34;5048940;28;20037;-89
2023/10/26 01:30:35;;;;;;;0.50;0.50;;;;;;;11.30;75.46;96750.81;5017327;28;20033;-88
2023/10/26 01:33:10;;;;;;;0.40;0.40;;;;;;;11.17;75.97;96739.34;5016756;28;20037;-87
2023/10/26 01:35:42;;;;;;;0.40;0.40;;;;;;;11.19;75.63;96742.88;5052894;28;20486;-89
2023/10/26 01:38:10;;;;;;;0.40;0.40;;;;;;;11.14;75.62;96739.34;5030474;28;20065;-91
2023/10/26 01:40:36;;;;;;;0.50;0.50;;;;;;;11.12;75.82;96729.59;5019671;28;20122;-92
2023/10/26 01:43:01;;;;;;;0.40;0.40;;;;;;;11.09;75.86;96730.50;5052494;28;20028;-92
2023/10/26 01:45:32;;;;;;;0.40;0.40;;;;;;;11.01;76.28;96735.84;5029498;28;21710;-87
2023/10/26 01:48:00;;;;;;;0.47;0.47;;;;;;;10.91;76.58;96731.44;5036289;28;20056;-91
2023/10/26 01:50:33;;;;;;;0.40;0.40;;;;;;;10.84;76.67;96724.38;5037901;28;20041;-90
2023/10/26 01:53:00;;;;;;;0.45;0.45;;;;;;;10.75;77.00;96730.63;5034070;28;20107;-93
2023/10/26 01:55:29;;;;;;;0.40;0.40;;;;;;;10.87;76.50;96740.34;5033663;28;20033;-93
2023/10/26 01:57:59;;;;;;;0.50;0.50;;;;;;;10.79;76.66;96734.19;5017914;28;20051;-93
2023/10/26 02:00:29;;;;;;;0.50;0.50;;;;;;;10.85;76.56;96725.28;5014102;28;20363;-90
2023/10/26 02:03:01;;;;;;;0.40;0.40;;;;;;;10.70;76.86;96726.22;5033549;28;20045;-92
2023/10/26 02:05:43;;;;;;;0.50;0.50;;;;;;;10.40;77.88;96728.09;5027530;28;20126;-92
2023/10/26 02:08:08;;;;;;;0.60;0.60;;;;;;;10.52;77.10;96733.38;5032673;28;20049;-90
2023/10/26 02:10:41;;;;;;;0.50;0.50;;;;;;;10.36;78.30;96736.97;5035792;28;20032;-89
2023/10/26 02:13:06;;;;;;;0.50;0.50;;;;;;;10.66;77.31;96732.44;5049137;28;20028;-88
2023/10/26 02:15:32;;;;;;;0.50;0.50;;;;;;;10.53;77.53;96731.59;5017028;28;20041;-87
2023/10/26 02:18:04;;;;;;;0.50;0.50;;;;;;;10.63;77.51;96735.13;5017059;28;20036;-89
2023/10/26 02:20:29;;;;;;;0.50;0.50;;;;;;;10.53;77.54;96735.16;5035417;28;20124;-89
2023/10/26 02:22:57;;;;;;;0.50;0.50;;;;;;;10.62;76.83;96730.69;5054609;28;20527;-89
2023/10/26 02:25:24;;;;;;;0.57;0.57;;;;;;;10.48;78.04;96736.94;5037048;28;20037;-90
2023/10/26 02:27:51;;;;;;;;;;;;;;;10.52;77.43;96738.72;5039034;28;20103;-87
2023/10/26 02:30:17;;;;;;;0.50;0.50;;;;;;;10.61;76.89;96743.13;5024048;28;19943;-91
2023/10/26 02:32:43;;;;;;;0.50;0.50;;;;;;;10.80;76.30;96741.28;5049743;28;20083;-88
2023/10/26 02:35:09;;;;;;;0.50;0.50;;;;;;;10.81;75.73;96734.16;5049188;28;20049;-88
2023/10/26 02:37:42;;;;;;;0.50;0.50;;;;;;;10.89;75.47;96738.59;5049310;28;20082;-92
2023/10/26 02:40:09;;;;;;;0.50;0.50;;;;;;;10.81;76.13;96736.84;5044553;28;20068;-91
2023/10/26 02:42:35;;;;;;;0.50;0.50;;;;;;;10.83;75.55;96743.97;5025753;28;20037;-89
2023/10/26 02:45:06;;;;;;;0.50;0.50;;;;;;;10.98;74.67;96727.88;5033535;28;20031;-87
2023/10/26 02:47:32;;;;;;;0.50;0.50;;;;;;;10.99;74.73;96740.31;5051785;28;20044;-89
2023/10/26 02:50:01;;;;;;;0.50;0.50;;;;;;;11.28;72.84;96729.50;5054934;28;20044;-91
2023/10/26 02:52:27;;;;;;;0.40;0.40;;;;;;;11.29;72.73;96733.94;5054821;28;20060;-88
2023/10/26 02:54:54;;;;;;;0.50;0.50;;;;;;;11.29;72.85;96733.03;5054621;28;20051;-86
2023/10/26 02:57:23;;;;;;;0.60;0.60;;;;;;;11.20;73.12;96727.75;5039184;28;20024;-88
2023/10/26 02:59:50;;;;;;;0.50;0.50;;;;;;;11.18;73.05;96716.22;5057022;28;20017;-87
2023/10/26 03:02:31;;;;;;;0.50;0.50;;;;;;;11.17;72.72;96718.00;5053640;28;20119;-92
2023/10/26 03:04:59;;;;;;;0.50;0.50;;;;;;;11.11;72.76;96719.78;5074451;28;20031;-88
2023/10/26 03:07:25;;;;;;;0.60;0.60;;;;;;;11.10;72.73;96715.34;5055207;28;20028;-87
2023/10/26 03:09:52;;;;;;;0.50;0.50;;;;;;;11.18;72.47;96727.78;5073222;28;20040;-87
2023/10/26 03:12:19;;;;;;;0.60;0.60;;;;;;;11.22;72.11;96728.66;5037679;28;20041;-86
2023/10/26 03:14:44;;;;;;;0.50;0.50;;;;;;;11.17;71.96;96733.13;5052036;28;20040;-89
2023/10/26 03:17:16;;;;;;;0.50;0.50;;;;;;;11.23;71.52;96731.31;5074598;28;20025;-87
2023/10/26 03:19:43;;;;;;;0.50;0.50;;;;;;;11.21;72.24;96714.41;5033453;28;20037;-85
2023/10/26 03:22:10;;;;;;;0.50;0.50;;;;;;;11.15;72.04;96718.88;5067478;28;20063;-89
2023/10/26 03:24:37;;;;;;;0.50;0.50;;;;;;;11.11;71.73;96717.13;5035614;28;20145;-88
2023/10/26 03:27:13;;;;;;;0.50;0.50;;;;;;;11.24;71.06;96724.19;5038009;28;20127;-88
2023/10/26 03:29:40;;;;;;;0.40;0.40;;;;;;;11.35;70.69;96713.44;5017488;28;20073;-88
2023/10/26 03:32:08;;;;;;;0.50;0.50;;;;;;;11.42;69.92;96720.53;5031754;28;20025;-86
2023/10/26 03:34:35;;;;;;;0.50;0.50;;;;;;;11.25;70.65;96709.94;5052778;28;20104;-87
2023/10/26 03:37:00;;;;;;;0.50;0.50;;;;;;;11.25;70.46;96708.13;5037078;28;20025;-87
2023/10/26 03:39:26;;;;;;;0.50;0.50;;;;;;;11.28;70.28;96712.59;5035851;28;20021;-88
2023/10/26 03:41:55;;;;;;;0.60;0.60;;;;;;;11.28;70.12;96715.25;5053430;28;20021;-87
2023/10/26 03:44:23;;;;;;;0.50;0.50;;;;;;;11.09;71.11;96708.25;5047602;28;20025;-86
2023/10/26 03:46:49;;;;;;;0.40;0.40;;;;;;;11.18;69.46;96724.22;5035619;28;20055;-90
2023/10/26 03:49:21;;;;;;;0.50;0.50;;;;;;;11.20;70.02;96711.75;5035218;28;20040;-90
2023/10/26 03:51:47;;;;;;;0.55;0.55;;;;;;;11.15;69.89;96718.88;5031257;28;20108;-89
2023/10/26 03:54:16;;;;;;;0.50;0.50;;;;;;;11.15;70.11;96718.88;5031374;28;20123;-89
2023/10/26 03:56:43;;;;;;;0.50;0.50;;;;;;;11.15;70.61;96710.88;5015274;28;20052;-88
2023/10/26 03:59:10;;;;;;;0.50;0.50;;;;;;;11.13;70.03;96716.25;5032534;28;20045;-89
2023/10/26 04:01:46;;;;;;;0.40;0.40;;;;;;;11.04;69.99;96710.94;5046532;28;20031;-88
2023/10/26 04:04:11;;;;;;;0.47;0.47;;;;;;;11.12;70.01;96722.47;5029271;23;20061;-79
2023/10/26 04:06:37;;;;;;;0.50;0.50;;;;;;;11.18;70.00;96729.56;5008212;28;20083;-78
2023/10/26 04:09:03;;;;;;;0.50;0.50;;;;;;;11.14;70.31;96730.47;5028637;28;20041;-78
2023/10/26 04:11:29;;;;;;;0.40;0.40;;;;;;;11.04;71.25;96734.97;5029899;28;20060;-79
2023/10/26 04:13:54;;;;;;;0.50;0.50;;;;;;;10.98;70.66;96721.66;5024689;28;20038;-79
2023/10/26 04:16:21;;;;;;;0.40;0.40;;;;;;;10.90;71.17;96726.13;5025981;28;20569;-79
2023/10/26 04:18:46;;;;;;;0.40;0.40;;;;;;;10.94;71.35;96736.78;5027344;28;20982;-80
2023/10/26 04:21:12;;;;;;;0.40;0.40;;;;;;;10.93;71.88;96729.69;5027639;28;20085;-80
2023/10/26 04:23:37;;;;;;;0.40;0.40;;;;;;;10.81;72.11;96727.06;5010439;28;20085;-80
2023/10/26 04:26:04;;;;;;;0.50;0.50;;;;;;;10.83;72.00;96722.63;5029448;28;20064;-81
2023/10/26 04:28:30;;;;;;;0.40;0.40;;;;;;;10.80;71.78;96711.94;5028060;28;20482;-79
2023/10/26 04:30:55;;;;;;;0.50;0.50;;;;;;;10.95;71.84;96705.66;5031189;28;20052;-81
2023/10/26 04:33:21;;;;;;;0.50;0.50;;;;;;;10.87;71.56;96705.69;5027849;28;20059;-79
2023/10/26 04:35:47;;;;;;;0.50;0.50;;;;;;;10.63;72.09;96705.78;5024082;28;20059;-80
2023/10/26 04:38:13;;;;;;;0.50;0.50;;;;;;;10.69;72.17;96716.44;5026629;28;20502;-79
2023/10/26 04:40:40;;;;;;;0.40;0.40;;;;;;;10.61;72.34;96708.47;5022620;28;20034;-81
2023/10/26 04:43:06;;;;;;;0.50;0.50;;;;;;;10.51;72.73;96699.63;5021670;28;20041;-80
2023/10/26 04:45:32;;;;;;;0.43;0.43;;;;;;;10.34;73.34;96705.88;5023110;28;20042;-81
2023/10/26 04:47:58;;;;;;;0.50;0.50;;;;;;;10.46;72.46;96704.06;5023077;28;20131;-82
2023/10/26 04:50:25;;;;;;;0.50;0.50;;;;;;;10.19;74.05;96709.44;5025266;28;20038;-81
2023/10/26 04:52:50;;;;;;;0.50;0.50;;;;;;;10.08;74.22;96720.13;5025502;28;20047;-82
2023/10/26 04:55:16;;;;;;;0.50;0.50;;;;;;;10.21;73.53;96718.34;5025311;28;20458;-81
2023/10/26 04:57:41;;;;;;;0.50;0.50;;;;;;;10.28;73.22;96706.78;5008449;28;20823;-82
2023/10/26 05:00:09;;;;;;;0.50;0.50;;;;;;;10.01;74.31;96713.91;5025196;28;20040;-81
2023/10/26 05:02:40;;;;;;;0.60;0.60;;;;;;;9.74;75.77;96716.59;5005768;28;20056;-79
2023/10/26 05:05:07;;;;;;;0.50;0.50;;;;;;;9.43;76.96;96715.66;5004896;28;20407;-79
2023/10/26 05:07:33;;;;;;;0.50;0.50;;;;;;;9.25;78.57;96720.09;5026814;28;20492;-78
2023/10/26 05:09:59;;;;;;;0.50;0.50;;;;;;;9.28;78.13;96713.88;5024422;28;20052;-78
2023/10/26 05:12:25;;;;;;;0.60;0.60;;;;;;;8.95;79.63;96712.91;5024914;28;20037;-78
2023/10/26 05:14:50;;;;;;;0.50;0.50;;;;;;;8.92;79.53;96709.38;5025204;28;20044;-79
2023/10/26 05:17:16;;;;;;;0.50;0.50;;;;;;;8.86;79.52;96710.25;5008882;28;20051;-82
2023/10/26 05:19:41;;;;;;;0.55;0.55;;;;;;;8.79;79.66;96703.13;5026512;28;20080;-80
2023/10/26 05:22:07;;;;;;;0.50;0.50;;;;;;;8.53;80.26;96704.78;5025739;28;20103;-81
2023/10/26 05:24:32;;;;;;;0.55;0.55;;;;;;;8.72;81.20;96707.53;5026165;28;20046;-80
2023/10/26 05:26:58;;;;;;;0.60;0.60;;;;;;;8.43;81.78;96704.75;5028169;28;20037;-80
2023/10/26 05:29:24;;;;;;;0.60;0.60;;;;;;;8.53;81.77;96694.16;5007329;28;20407;-81
2023/10/26 05:31:49;;;;;;;0.50;0.50;;;;;;;8.56;82.27;96696.84;5023756;28;20033;-80
2023/10/26 05:34:15;;;;;;;0.60;0.60;;;;;;;8.47;82.04;96698.56;5027371;28;20034;-80
2023/10/26 05:36:40;;;;;;;0.60;0.60;;;;;;;8.27;83.66;96689.56;5025808;28;20041;-80
2023/10/26 05:39:06;;;;;;;0.60;0.60;;;;;;;8.06;84.65;96698.31;5025449;28;20041;-80
2023/10/26 05:41:33;;;;;;;0.60;0.60;;;;;;;8.01;84.50;96688.56;5027076;28;20435;-80
2023/10/26 05:43:58;;;;;;;0.70;0.70;;;;;;;7.89;85.18;96694.66;5026233;28;20038;-80
2023/10/26 05:46:24;;;;;;;0.60;0.60;;;;;;;7.73;85.59;96698.97;5026847;28;20040;-80
2023/10/26 05:48:49;;;;;;;0.70;0.70;;;;;;;7.41;86.75;96699.59;5007398;28;20088;-80
2023/10/26 05:51:15;;;;;;;0.60;0.60;;;;;;;7.35;87.55;96696.00;5024112;28;20129;-81
2023/10/26 05:53:40;;;;;;;0.70;0.70;;;;;;;7.33;88.06;96701.31;5024028;28;20060;-81
2023/10/26 05:56:07;;;;;;;0.60;0.60;;;;;;;7.28;87.57;96696.81;5028779;28;20205;-81
2023/10/26 05:58:32;;;;;;;0.70;0.70;;;;;;;7.30;88.17;96701.28;5005444;28;20064;-81
2023/10/26 06:00:58;;;;;;;0.70;0.70;;;;;;;7.25;88.74;96692.38;5023517;28;20033;-80
2023/10/26 06:03:24;;;;;;;0.60;0.60;;;;;;;7.02;88.76;96696.56;5022807;28;20048;-81
2023/10/26 06:05:49;;;;;;;0.60;0.60;;;;;;;6.97;89.38;96691.22;5021740;28;20042;-79
2023/10/26 06:08:15;;;;;;;0.60;0.60;;;;;;;7.07;89.84;96690.44;5022206;28;20159;-80
2023/10/26 06:10:40;;;;;;;0.70;0.70;;;;;;;7.08;89.49;96696.63;5023804;28;20029;-80
2023/10/26 06:13:07;;;;;;;0.65;0.65;;;;;;;6.99;89.48;96700.06;5024964;28;20041;-79
2023/10/26 06:15:34;;;;;;;0.70;0.70;;;;;;;6.90;89.58;96697.34;5006072;28;20121;-80
2023/10/26 06:17:59;;;;;;;0.70;0.70;;;;;;;6.88;89.86;96689.38;5007528;28;20689;-80
2023/10/26 06:20:27;;;;;;;0.60;0.60;;;;;;;7.09;89.86;96695.75;5011282;28;20041;-79
2023/10/26 06:22:54;;;;;;;0.70;0.70;;;;;;;7.09;89.87;96704.63;4999437;28;20383;-78
2023/10/26 06:25:20;;;;;;;0.60;0.60;;;;;;;7.23;89.21;96712.69;5004773;28;20096;-79
2023/10/26 06:27:49;;;;;;;0.70;0.70;;;;;;;7.28;89.71;96704.78;5025582;28;20597;-79
2023/10/26 06:30:15;;;;;;;0.70;0.70;;;;;;;7.41;89.33;96709.31;5026491;28;20038;-79
2023/10/26 06:32:41;;;;;;;0.70;0.70;;;;;;;7.42;89.38;96704.03;5026191;28;20052;-79
2023/10/26 06:35:07;;;;;;;0.70;0.70;;;;;;;7.44;89.31;96717.31;5027261;28;20451;-81
2023/10/26 06:37:33;;;;;;;0.60;0.60;;;;;;;7.60;89.57;96719.22;5010292;28;20025;-78
2023/10/26 06:39:58;;;;;;;0.60;0.60;;;;;;;7.72;89.25;96721.97;5026318;28;20033;-79
2023/10/26 06:42:24;;;;;;;0.60;0.60;;;;;;;7.82;89.03;96719.41;5027861;28;20053;-78
2023/10/26 06:44:57;;;;;;;0.60;0.60;;;;;;;7.86;88.37;96718.56;5026941;28;20048;-78
2023/10/26 06:47:23;;;;;;;0.60;0.60;;;;;;;8.03;87.90;96716.88;5027421;28;20042;-79
2023/10/26 06:49:48;;;;;;;0.60;0.60;;;;;;;8.15;87.47;96716.09;5010587;28;20091;-77
2023/10/26 06:52:14;;;;;;;0.60;0.60;;;;;;;8.17;87.30;96715.19;5009517;28;20061;-79
2023/10/26 06:54:40;;;;;;;0.60;0.60;;;;;;;8.47;86.40;96711.84;5027750;28;20503;-79
2023/10/26 06:57:05;;;;;;;0.55;0.55;;;;;;;8.54;85.51;96715.44;5027223;28;20558;-79
2023/10/26 06:59:30;;;;;;;0.57;0.57;;;;;;;8.55;85.73;96718.97;5007238;28;20041;-78
2023/10/26 07:01:56;;;;;;;0.60;0.60;;;;;;;8.54;85.12;96709.25;5009311;28;20045;-79
2023/10/26 07:04:22;;;;;;;0.60;0.60;;;;;;;8.69;84.52;96702.22;5027650;28;20044;-79
2023/10/26 07:06:47;;;;;;;0.60;0.60;;;;;;;8.93;84.25;96706.72;5011919;28;20731;-79
2023/10/26 07:09:13;;;;;;;0.60;0.60;;;;;;;8.75;84.47;96711.97;5025712;28;20041;-79
2023/10/26 07:11:39;;;;;;;0.60;0.60;;;;;;;8.78;84.94;96712.00;5024713;28;20041;-79
2023/10/26 07:14:05;;;;;;;0.60;0.60;;;;;;;8.87;84.38;96711.13;5023141;28;20205;-79
2023/10/26 07:16:31;;;;;;;0.60;0.60;;;;;;;8.96;84.67;96704.06;5026879;28;20045;-78
2023/10/26 07:18:56;;;;;;;0.60;0.60;;;;;;;9.14;84.06;96710.31;5006765;28;20095;-79
2023/10/26 07:21:22;;;;;;;0.60;0.60;;;;;;;9.14;84.52;96719.16;5022395;28;20515;-78
2023/10/26 07:23:47;;;;;;;0.60;0.60;;;;;;;9.09;84.64;96709.41;5024936;28;20127;-78
2023/10/26 07:26:17;;;;;;;0.60;0.60;;;;;;;9.15;84.92;96707.66;5026795;28;20033;-79
2023/10/26 07:28:43;;;;;;;0.60;0.60;;;;;;;9.30;84.89;96709.47;5024076;28;20124;-79
2023/10/26 07:31:08;;;;;;;0.50;0.50;;;;;;;9.48;84.33;96722.78;5025268;28;20041;-79
2023/10/26 07:33:34;;;;;;;0.60;0.60;;;;;;;9.48;84.00;96717.44;5023370;28;20033;-79
2023/10/26 07:35:59;;;;;;;0.60;0.60;;;;;;;9.62;83.88;96713.91;5024739;28;20036;-80
2023/10/26 07:38:25;;;;;;;0.50;0.50;;;;;;;9.75;83.09;96705.94;5024440;28;20037;-78
2023/10/26 07:40:52;;;;;;;0.50;0.50;;;;;;;9.89;83.57;96703.25;5024547;28;20113;-80
2023/10/26 07:43:18;;;;;;;0.50;0.50;;;;;;;10.17;82.54;96705.91;5024998;28;20033;-79
2023/10/26 07:45:46;;;;;;;0.52;0.52;;;;;;;10.14;82.11;96706.78;5024479;28;20041;-79
2023/10/26 07:48:12;;;;;;;0.60;0.60;;;;;;;10.25;81.68;96704.13;5024999;28;20134;-79
2023/10/26 07:50:37;;;;;;;0.50;0.50;;;;;;;10.24;81.17;96702.34;5024948;28;20033;-80
2023/10/26 07:53:03;;;;;;;0.57;0.57;;;;;;;10.32;80.93;96691.69;5026777;28;20068;-80
2023/10/26 07:55:29;;;;;;;0.52;0.52;;;;;;;10.29;81.55;96697.91;5026848;28;20048;-80
2023/10/26 07:57:54;;;;;;;0.57;0.57;;;;;;;10.43;81.92;96685.41;5025902;28;20428;-80
2023/10/26 08:00:20;;;;;;;0.43;0.43;;;;;;;10.58;81.27;96689.81;5015788;28;20052;-79
2023/10/26 08:02:46;;;;;;;0.50;0.50;;;;;;;10.81;80.64;96687.03;5022393;28;20501;-80
2023/10/26 08:05:12;;;;;;;0.50;0.50;;;;;;;10.90;79.78;96678.13;5023687;28;20037;-80
2023/10/26 08:07:38;;;;;;;0.50;0.50;;;;;;;10.75;80.29;96685.28;5026015;28;20442;-80
2023/10/26 08:10:04;;;;;;;0.50;0.50;;;;;;;10.94;79.88;96677.22;5018545;28;20045;-80
2023/10/26 08:12:30;;;;;;;0.40;0.40;;;;;;;11.28;79.60;96667.22;5027205;28;20084;-80
2023/10/26 08:14:57;;;;;;;0.50;0.50;;;;;;;11.37;78.89;96666.25;5021651;28;20029;-80
2023/10/26 08:17:25;;;;;;;0.50;0.50;;;;;;;11.65;78.59;96672.28;5002029;28;20515;-81
2023/10/26 08:19:53;;;;;;;0.50;0.50;;;;;;;11.48;77.99;96670.63;5025144;28;20575;-80
2023/10/26 08:22:20;;;;;;;0.40;0.40;;;;;;;11.65;76.55;96672.28;5025934;28;20053;-81
2023/10/26 08:24:49;;;;;;;0.40;0.40;;;;;;;11.84;76.85;96667.69;5027311;28;20450;-81
2023/10/26 08:27:14;;;;;;;0.40;0.40;;;;;;;11.78;77.62;96661.44;5028271;28;20120;-79
2023/10/26 08:29:40;;;;;;;0.50;0.50;;;;;;;11.71;77.64;96659.75;5025840;28;20056;-80
2023/10/26 08:32:05;;;;;;;0.50;0.50;;;;;;;11.68;78.02;96662.44;5027944;28;20037;-80
2023/10/26 08:34:31;;;;;;;0.50;0.50;;;;;;;11.81;76.85;96674.78;5028734;28;20136;-80
2023/10/26 08:36:59;;;;;;;0.40;0.40;;;;;;;11.92;77.39;96684.53;5008845;28;20042;-79
2023/10/26 08:39:25;;;;;;;0.50;0.50;;;;;;;11.91;77.39;96688.09;5009919;28;20390;-81
2023/10/26 08:41:50;;;;;;;0.45;0.45;;;;;;;11.87;77.39;96686.34;5028816;28;20046;-80
2023/10/26 08:44:17;;;;;;;0.50;0.50;;;;;;;12.02;78.28;96672.84;5026636;28;20046;-80
2023/10/26 08:46:45;;;;;;;0.50;0.50;;;;;;;12.21;78.05;96674.44;5027183;28;20503;-80
2023/10/26 08:49:13;;;;;;;0.40;0.40;;;;;;;12.47;76.75;96671.50;5009954;28;20033;-79
2023/10/26 08:51:38;;;;;;;0.40;0.40;;;;;;;12.19;74.58;96662.00;5007281;28;20037;-79
2023/10/26 08:54:05;;;;;;;0.43;0.43;;;;;;;12.22;75.62;96670.88;5028023;28;20033;-80
2023/10/26 08:56:31;;;;;;;0.50;0.50;;;;;;;12.36;76.11;96675.19;5025649;28;20109;-79
2023/10/26 08:58:57;;;;;;;0.40;0.40;;;;;;;12.14;74.59;96693.25;5027548;28;20402;-78
2023/10/26 09:01:24;;;;;;;0.40;0.40;;;;;;;12.12;74.84;96701.28;5009054;28;20037;-80
2023/10/26 09:03:49;;;;;;;0.50;0.50;;;;;;;11.91;76.12;96691.66;5032122;28;20107;-80
2023/10/26 09:06:15;;;;;;;0.50;0.50;;;;;;;12.05;74.90;96684.41;5034339;28;20037;-80
2023/10/26 09:08:41;;;;;;;0.50;0.50;;;;;;;11.99;75.87;96679.13;5033176;28;20112;-80
2023/10/26 09:11:22;;;;;;;0.50;0.50;;;;;;;12.25;74.55;96667.28;5030641;28;20041;-79
2023/10/26 09:13:50;;;;;;;0.50;0.50;;;;;;;13.10;72.96;96668.03;5033333;28;20038;-79
2023/10/26 09:16:15;;;;;;;0.50;0.50;;;;;;;12.62;73.37;96674.91;5034081;28;20037;-81
2023/10/26 09:18:49;;;;;;;0.50;0.50;;;;;;;12.74;74.92;96662.25;5028875;28;20033;-80
2023/10/26 09:21:16;;;;;;;0.40;0.40;;;;;;;12.59;76.07;96663.31;5003785;28;20049;-79
2023/10/26 09:23:42;;;;;;;0.43;0.43;;;;;;;12.82;75.27;96670.19;5026293;28;20056;-80
2023/10/26 09:26:09;;;;;;;0.40;0.40;;;;;;;12.35;77.26;96671.63;5010335;28;20041;-80
2023/10/26 09:28:47;;;;;;;0.40;0.40;;;;;;;12.40;76.66;96671.56;5027009;28;20088;-78
2023/10/26 09:31:13;;;;;;;0.40;0.40;;;;;;;12.76;75.28;96678.28;5025567;28;20037;-79
2023/10/26 09:33:38;;;;;;;0.40;0.40;;;;;;;12.54;75.59;96677.66;5026543;28;20029;-80
2023/10/26 09:36:13;;;;;;;0.40;0.40;;;;;;;12.15;76.25;96681.66;5009466;28;20684;-80
2023/10/26 09:38:39;;;;;;;0.50;0.50;;;;;;;12.11;76.80;96687.91;4991861;28;20464;-80
2023/10/26 09:41:11;;;;;;;0.50;0.50;;;;;;;11.93;77.99;96695.22;5026583;28;20060;-81
2023/10/26 09:43:37;;;;;;;0.50;0.50;;;;;;;12.12;77.96;96693.28;5027798;28;20033;-82
2023/10/26 09:46:03;;;;;;;0.50;0.50;;;;;;;11.87;78.25;96705.06;5029814;28;20075;-81
2023/10/26 09:48:29;;;;;;;0.40;0.40;;;;;;;11.74;79.87;96698.94;5029545;28;20033;-82
2023/10/26 09:51:00;;;;;;;0.50;0.50;;;;;;;11.66;80.81;96687.41;5007095;28;20068;-80
2023/10/26 09:53:29;;;;;;;0.40;0.40;;;;;;;11.48;81.11;96707.13;5027208;28;20044;-81
2023/10/26 09:55:55;;;;;;;0.50;0.50;;;;;;;11.45;82.02;96710.72;5008688;28;20037;-82
2023/10/26 09:58:23;;;;;;;0.50;0.50;;;;;;;11.40;81.16;96715.19;5027684;28;20514;-82
2023/10/26 10:00:48;;;;;;;0.50;0.50;;;;;;;11.40;82.35;96724.97;5025183;28;20055;-80
2023/10/26 10:03:16;;;;;;;0.50;0.50;;;;;;;11.44;82.00;96740.06;5010523;28;20049;-82
2023/10/26 10:05:43;;;;;;;0.50;0.50;;;;;;;11.32;82.74;96734.81;5024912;28;20568;-82
2023/10/26 10:08:09;;;;;;;;;;;;;;;11.35;82.67;96738.34;5027746;28;20782;-81
2023/10/26 10:10:35;;;;;;;0.60;0.60;;;;;;;11.30;83.59;96743.69;5027541;28;20000;-80
2023/10/26 10:13:01;;;;;;;0.50;0.50;;;;;;;11.18;84.07;96740.25;5028323;28;20045;-77
2023/10/26 10:15:41;;;;;;;0.40;0.40;;;;;;;11.07;84.86;96756.31;5026498;28;20045;-79
2023/10/26 10:18:07;;;;;;;0.45;0.45;;;;;;;10.90;86.21;96753.69;5006579;28;20064;-79
2023/10/26 10:20:40;;;;;;;0.50;0.50;;;;;;;10.79;87.65;96747.53;5008425;28;20045;-77
2023/10/26 10:23:06;;;;;;;0.40;0.40;;;;;;;10.78;88.33;96743.09;5026897;28;20411;-77
2023/10/26 10:25:50;;;;;;;0.43;0.43;;;;;;;10.67;89.06;96742.22;5028285;28;20550;-78
2023/10/26 10:28:19;;;;;;;0.50;0.50;;;;;;;10.78;88.70;96733.31;5028635;28;20124;-77
2023/10/26 10:31:00;;;;;;;0.50;0.50;;;;;;;10.96;88.67;96716.31;5029636;28;20029;-77
2023/10/26 10:33:27;;;;;;;0.50;0.50;;;;;;;10.92;87.82;96716.31;5021480;28;20038;-77
2023/10/26 10:36:03;;;;;;;0.60;0.60;;;;;;;10.87;88.60;96705.69;5026996;28;20037;-77
2023/10/26 10:38:29;;;;;;;0.50;0.50;;;;;;;11.17;87.98;96688.63;5027840;28;20064;-77
2023/10/26 10:40:55;;;;;;;0.60;0.60;;;;;;;11.38;87.40;96700.06;5027681;28;20052;-77
2023/10/26 10:43:46;;;;;;;0.50;0.50;;;;;;;11.20;87.78;96712.63;5006597;28;20695;-77
2023/10/26 10:46:23;;;;;;;0.52;0.52;;;;;;;11.20;87.26;96717.06;5025517;28;20033;-78
2023/10/26 10:49:07;;;;;;;0.50;0.50;;;;;;;11.47;86.06;96711.56;5024577;28;20037;-77
2023/10/26 10:51:37;;;;;;;0.50;0.50;;;;;;;11.36;85.86;96686.75;5025687;28;20034;-78
2023/10/26 10:54:06;;;;;;;0.60;0.60;;;;;;;11.60;87.32;96671.44;5008009;28;20282;-77
2023/10/26 10:56:46;;;;;;;0.50;0.50;;;;;;;12.05;85.98;96680.84;5024363;28;20079;-77
2023/10/26 10:59:18;;;;;;;0.50;0.50;;;;;;;12.07;84.54;96695.06;5007047;28;20034;-77
2023/10/26 11:01:44;;;;;;;0.50;0.50;;;;;;;11.66;85.27;96690.97;5024815;28;20064;-77
2023/10/26 11:04:13;;;;;;;0.45;0.45;;;;;;;11.54;86.28;96686.56;5024055;28;20030;-77
2023/10/26 11:06:49;;;;;;;0.50;0.50;;;;;;;11.89;85.63;96684.59;5024618;28;20520;-77
2023/10/26 11:09:21;;;;;;;0.50;0.50;;;;;;;11.86;85.32;96671.22;5025327;28;20041;-77
2023/10/26 11:11:47;;;;;;;0.50;0.50;;;;;;;11.57;85.17;96675.88;5023124;28;20505;-77
2023/10/26 11:14:12;;;;;;;0.50;0.50;;;;;;;11.86;85.29;96673.91;5008924;28;20037;-77
2023/10/26 11:16:41;;;;;;;0.40;0.40;;;;;;;12.04;85.28;96669.28;5001093;28;20383;-78
2023/10/26 11:19:06;;;;;;;0.50;0.50;;;;;;;12.04;84.50;96671.94;5023669;28;20037;-77
2023/10/26 11:21:32;;;;;;;0.40;0.40;;;;;;;12.15;85.17;96681.66;5025139;28;20044;-79
2023/10/26 11:23:59;;;;;;;0.40;0.40;;;;;;;12.17;84.50;96679.81;5025428;28;20060;-78
2023/10/26 11:26:24;;;;;;;0.50;0.50;;;;;;;12.38;83.62;96676.06;5022176;28;20037;-77
2023/10/26 11:28:50;;;;;;;0.40;0.40;;;;;;;12.66;82.69;96665.94;5006454;28;20038;-76
2023/10/26 11:31:15;;;;;;;0.45;0.45;;;;;;;12.62;82.26;96661.53;5025509;28;20042;-78
2023/10/26 11:33:42;;;;;;;0.43;0.43;;;;;;;12.82;80.50;96667.50;5023762;28;20434;-77
2023/10/26 11:36:12;;;;;;;0.50;0.50;;;;;;;12.61;82.24;96683.84;5024076;28;20048;-77
2023/10/26 11:38:48;;;;;;;0.50;0.50;;;;;;;12.67;82.37;96671.25;5020740;28;20038;-78